West Hurley, New York
Current Conditions -  °F | °C
As of 2:00 PM on Thursday 27 Nov 2014 (Local Time) from KPOU Reporting Station
Light Snow Light Snow  
Wind Chill: -2°   Ceiling: 1700
Heat Index:   Visibility: 3mi
Dew Point: -2°   Wind: 7mph
Humidity: 82%   Direction: 350°N
Pressure: 29.98"   Gusts: NA
Location:  42.01°N, 74.11°W
Report Text: KPOU 271900Z 35006KT 3SM -SN OVC017 01/M02 A2998 RMK AO2 P0000 T00111017
Loading
Personal Weather Stations






























Interactive Weather Map New forecast layout! Learn more

10-Day Weather Forecast

Advertisements
Track Severe Weather on mobile